sensor_id;sensor_type;location;lat;lon;timestamp;P1;durP1;ratioP1;P2;durP2;ratioP2
60468;SDS011;46316;47.582;10.238;2022-09-03T00:00:53;6.07;;;5.43;;
60468;SDS011;46316;47.582;10.238;2022-09-03T00:03:22;6.30;;;5.55;;
60468;SDS011;46316;47.582;10.238;2022-09-03T00:06:15;5.90;;;5.32;;
60468;SDS011;46316;47.582;10.238;2022-09-03T00:08:56;6.45;;;5.78;;
60468;SDS011;46316;47.582;10.238;2022-09-03T00:11:31;6.03;;;5.50;;
60468;SDS011;46316;47.582;10.238;2022-09-03T00:14:15;6.50;;;5.90;;
60468;SDS011;46316;47.582;10.238;2022-09-03T00:17:13;10.43;;;5.70;;
60468;SDS011;46316;47.582;10.238;2022-09-03T00:19:52;6.22;;;5.55;;
60468;SDS011;46316;47.582;10.238;2022-09-03T00:22:41;6.28;;;5.45;;
60468;SDS011;46316;47.582;10.238;2022-09-03T00:25:11;7.13;;;5.60;;
60468;SDS011;46316;47.582;10.238;2022-09-03T00:27:41;7.75;;;6.05;;
60468;SDS011;46316;47.582;10.238;2022-09-03T00:30:10;5.85;;;5.30;;
60468;SDS011;46316;47.582;10.238;2022-09-03T00:32:39;6.10;;;5.57;;
60468;SDS011;46316;47.582;10.238;2022-09-03T00:35:10;5.07;;;4.63;;
60468;SDS011;46316;47.582;10.238;2022-09-03T00:37:50;7.38;;;5.78;;
60468;SDS011;46316;47.582;10.238;2022-09-03T00:43:20;5.95;;;5.45;;
60468;SDS011;46316;47.582;10.238;2022-09-03T00:46:27;6.10;;;5.38;;
60468;SDS011;46316;47.582;10.238;2022-09-03T00:57:20;6.65;;;5.95;;
60468;SDS011;46316;47.582;10.238;2022-09-03T01:02:33;6.78;;;5.53;;
60468;SDS011;46316;47.582;10.238;2022-09-03T01:08:19;6.00;;;5.35;;
60468;SDS011;46316;47.582;10.238;2022-09-03T01:16:30;6.90;;;5.55;;
60468;SDS011;46316;47.582;10.238;2022-09-03T01:19:24;6.68;;;6.03;;
60468;SDS011;46316;47.582;10.238;2022-09-03T01:24:57;8.05;;;6.10;;
60468;SDS011;46316;47.582;10.238;2022-09-03T01:30:15;6.93;;;6.32;;
60468;SDS011;46316;47.582;10.238;2022-09-03T01:32:53;6.60;;;5.63;;
60468;SDS011;46316;47.582;10.238;2022-09-03T01:38:22;10.00;;;6.10;;
60468;SDS011;46316;47.582;10.238;2022-09-03T01:43:45;6.47;;;5.82;;
60468;SDS011;46316;47.582;10.238;2022-09-03T01:46:25;7.05;;;6.22;;
60468;SDS011;46316;47.582;10.238;2022-09-03T01:51:46;6.47;;;5.88;;
60468;SDS011;46316;47.582;10.238;2022-09-03T02:00:16;6.95;;;6.25;;
60468;SDS011;46316;47.582;10.238;2022-09-03T02:02:44;6.78;;;6.18;;
60468;SDS011;46316;47.582;10.238;2022-09-03T02:07:43;6.70;;;6.10;;
60468;SDS011;46316;47.582;10.238;2022-09-03T02:10:15;6.82;;;6.10;;
60468;SDS011;46316;47.582;10.238;2022-09-03T02:12:45;6.35;;;5.75;;
60468;SDS011;46316;47.582;10.238;2022-09-03T02:15:16;7.13;;;6.43;;
60468;SDS011;46316;47.582;10.238;2022-09-03T02:17:44;7.53;;;6.75;;
60468;SDS011;46316;47.582;10.238;2022-09-03T02:20:15;6.93;;;6.32;;
60468;SDS011;46316;47.582;10.238;2022-09-03T02:22:47;6.18;;;5.65;;
60468;SDS011;46316;47.582;10.238;2022-09-03T02:25:13;7.13;;;6.22;;
60468;SDS011;46316;47.582;10.238;2022-09-03T02:27:40;5.75;;;5.15;;
60468;SDS011;46316;47.582;10.238;2022-09-03T02:30:06;5.97;;;5.43;;
60468;SDS011;46316;47.582;10.238;2022-09-03T02:32:32;7.70;;;5.32;;
60468;SDS011;46316;47.582;10.238;2022-09-03T02:34:58;5.32;;;4.82;;
60468;SDS011;46316;47.582;10.238;2022-09-03T02:37:24;8.32;;;4.93;;
60468;SDS011;46316;47.582;10.238;2022-09-03T02:39:49;5.82;;;5.18;;
60468;SDS011;46316;47.582;10.238;2022-09-03T02:42:18;5.95;;;5.28;;
60468;SDS011;46316;47.582;10.238;2022-09-03T02:44:52;5.30;;;4.80;;
60468;SDS011;46316;47.582;10.238;2022-09-03T02:47:24;6.43;;;5.82;;
60468;SDS011;46316;47.582;10.238;2022-09-03T02:49:55;5.40;;;4.90;;
60468;SDS011;46316;47.582;10.238;2022-09-03T02:52:20;5.10;;;4.60;;
60468;SDS011;46316;47.582;10.238;2022-09-03T02:54:46;4.70;;;4.30;;
60468;SDS011;46316;47.582;10.238;2022-09-03T02:57:13;5.13;;;3.47;;
60468;SDS011;46316;47.582;10.238;2022-09-03T02:59:40;4.88;;;3.20;;
60468;SDS011;46316;47.582;10.238;2022-09-03T03:02:10;3.58;;;3.28;;
60468;SDS011;46316;47.582;10.238;2022-09-03T03:04:36;3.50;;;3.20;;
60468;SDS011;46316;47.582;10.238;2022-09-03T03:07:03;3.15;;;2.70;;
60468;SDS011;46316;47.582;10.238;2022-09-03T03:09:29;3.10;;;2.80;;
60468;SDS011;46316;47.582;10.238;2022-09-03T03:11:55;4.38;;;3.13;;
60468;SDS011;46316;47.582;10.238;2022-09-03T03:14:20;3.47;;;3.17;;
60468;SDS011;46316;47.582;10.238;2022-09-03T03:16:46;4.38;;;3.40;;
60468;SDS011;46316;47.582;10.238;2022-09-03T03:19:13;4.72;;;3.55;;
60468;SDS011;46316;47.582;10.238;2022-09-03T03:21:39;4.35;;;3.22;;
60468;SDS011;46316;47.582;10.238;2022-09-03T03:24:05;6.32;;;3.97;;
60468;SDS011;46316;47.582;10.238;2022-09-03T03:26:31;3.92;;;3.60;;
60468;SDS011;46316;47.582;10.238;2022-09-03T03:28:57;3.90;;;3.50;;
60468;SDS011;46316;47.582;10.238;2022-09-03T03:31:25;4.63;;;4.22;;
60468;SDS011;46316;47.582;10.238;2022-09-03T03:33:55;4.50;;;4.10;;
60468;SDS011;46316;47.582;10.238;2022-09-03T03:36:24;4.97;;;4.25;;
60468;SDS011;46316;47.582;10.238;2022-09-03T03:38:54;5.10;;;4.53;;
60468;SDS011;46316;47.582;10.238;2022-09-03T03:41:24;4.35;;;3.90;;
60468;SDS011;46316;47.582;10.238;2022-09-03T03:43:58;5.68;;;3.85;;
60468;SDS011;46316;47.582;10.238;2022-09-03T03:46:27;3.83;;;3.53;;
60468;SDS011;46316;47.582;10.238;2022-09-03T03:48:55;4.43;;;3.83;;
60468;SDS011;46316;47.582;10.238;2022-09-03T03:51:20;4.82;;;3.70;;
60468;SDS011;46316;47.582;10.238;2022-09-03T03:53:46;3.72;;;3.33;;
60468;SDS011;46316;47.582;10.238;2022-09-03T03:56:13;3.38;;;3.08;;
60468;SDS011;46316;47.582;10.238;2022-09-03T03:58:40;5.25;;;4.05;;
60468;SDS011;46316;47.582;10.238;2022-09-03T04:01:15;4.35;;;3.42;;
60468;SDS011;46316;47.582;10.238;2022-09-03T04:03:43;3.10;;;2.88;;
60468;SDS011;46316;47.582;10.238;2022-09-03T04:06:09;5.57;;;3.58;;
60468;SDS011;46316;47.582;10.238;2022-09-03T04:08:37;4.72;;;3.35;;
60468;SDS011;46316;47.582;10.238;2022-09-03T04:11:05;6.00;;;4.13;;
60468;SDS011;46316;47.582;10.238;2022-09-03T04:13:33;5.75;;;3.95;;
60468;SDS011;46316;47.582;10.238;2022-09-03T04:16:04;3.75;;;3.45;;
60468;SDS011;46316;47.582;10.238;2022-09-03T04:18:34;4.93;;;3.95;;
60468;SDS011;46316;47.582;10.238;2022-09-03T04:21:02;3.63;;;3.33;;
60468;SDS011;46316;47.582;10.238;2022-09-03T04:23:31;4.50;;;4.07;;
60468;SDS011;46316;47.582;10.238;2022-09-03T04:26:00;4.32;;;3.92;;
60468;SDS011;46316;47.582;10.238;2022-09-03T04:28:26;4.65;;;4.25;;
60468;SDS011;46316;47.582;10.238;2022-09-03T04:30:53;4.30;;;3.97;;
60468;SDS011;46316;47.582;10.238;2022-09-03T04:33:18;4.93;;;4.47;;
60468;SDS011;46316;47.582;10.238;2022-09-03T04:35:45;4.97;;;4.43;;
60468;SDS011;46316;47.582;10.238;2022-09-03T04:38:10;4.60;;;4.15;;
60468;SDS011;46316;47.582;10.238;2022-09-03T04:40:36;4.40;;;3.95;;
60468;SDS011;46316;47.582;10.238;2022-09-03T04:43:01;4.80;;;4.38;;
60468;SDS011;46316;47.582;10.238;2022-09-03T04:45:27;4.60;;;4.13;;
60468;SDS011;46316;47.582;10.238;2022-09-03T04:48:03;6.90;;;4.30;;
60468;SDS011;46316;47.582;10.238;2022-09-03T04:50:29;4.00;;;3.65;;
60468;SDS011;46316;47.582;10.238;2022-09-03T04:53:00;5.32;;;3.60;;
60468;SDS011;46316;47.582;10.238;2022-09-03T04:55:27;3.90;;;3.50;;
60468;SDS011;46316;47.582;10.238;2022-09-03T04:58:00;3.85;;;3.50;;
60468;SDS011;46316;47.582;10.238;2022-09-03T05:00:26;3.90;;;3.22;;
60468;SDS011;46316;47.582;10.238;2022-09-03T05:02:51;5.15;;;3.38;;
60468;SDS011;46316;47.582;10.238;2022-09-03T05:05:17;3.90;;;3.60;;
60468;SDS011;46316;47.582;10.238;2022-09-03T05:07:43;3.35;;;3.05;;
60468;SDS011;46316;47.582;10.238;2022-09-03T05:10:09;3.10;;;2.90;;
60468;SDS011;46316;47.582;10.238;2022-09-03T05:12:47;2.97;;;2.67;;
60468;SDS011;46316;47.582;10.238;2022-09-03T05:15:22;2.45;;;2.25;;
60468;SDS011;46316;47.582;10.238;2022-09-03T05:17:48;5.97;;;2.60;;
60468;SDS011;46316;47.582;10.238;2022-09-03T05:20:16;2.58;;;2.35;;
60468;SDS011;46316;47.582;10.238;2022-09-03T05:22:42;2.60;;;2.40;;
60468;SDS011;46316;47.582;10.238;2022-09-03T05:25:07;3.88;;;3.30;;
60468;SDS011;46316;47.582;10.238;2022-09-03T05:27:33;3.97;;;3.38;;
60468;SDS011;46316;47.582;10.238;2022-09-03T05:29:58;3.58;;;2.92;;
60468;SDS011;46316;47.582;10.238;2022-09-03T05:32:24;3.67;;;3.30;;
60468;SDS011;46316;47.582;10.238;2022-09-03T05:34:52;3.00;;;2.70;;
60468;SDS011;46316;47.582;10.238;2022-09-03T05:37:17;4.60;;;3.35;;
60468;SDS011;46316;47.582;10.238;2022-09-03T05:39:43;4.50;;;3.05;;
60468;SDS011;46316;47.582;10.238;2022-09-03T05:42:08;3.90;;;2.90;;
60468;SDS011;46316;47.582;10.238;2022-09-03T05:44:37;3.00;;;2.70;;
60468;SDS011;46316;47.582;10.238;2022-09-03T05:47:03;3.13;;;2.83;;
60468;SDS011;46316;47.582;10.238;2022-09-03T05:49:28;2.90;;;2.60;;
60468;SDS011;46316;47.582;10.238;2022-09-03T05:51:54;2.95;;;2.60;;
60468;SDS011;46316;47.582;10.238;2022-09-03T05:54:20;2.90;;;2.70;;
60468;SDS011;46316;47.582;10.238;2022-09-03T05:56:46;3.47;;;3.17;;
60468;SDS011;46316;47.582;10.238;2022-09-03T05:59:12;4.07;;;3.13;;
60468;SDS011;46316;47.582;10.238;2022-09-03T06:01:39;2.90;;;2.67;;
60468;SDS011;46316;47.582;10.238;2022-09-03T06:04:07;3.42;;;3.20;;
60468;SDS011;46316;47.582;10.238;2022-09-03T06:06:36;5.25;;;3.60;;
60468;SDS011;46316;47.582;10.238;2022-09-03T06:09:05;5.40;;;3.30;;
60468;SDS011;46316;47.582;10.238;2022-09-03T06:11:33;3.90;;;3.60;;
60468;SDS011;46316;47.582;10.238;2022-09-03T06:14:00;5.88;;;3.97;;
60468;SDS011;46316;47.582;10.238;2022-09-03T06:16:30;4.22;;;3.25;;
60468;SDS011;46316;47.582;10.238;2022-09-03T06:18:56;4.90;;;3.40;;
60468;SDS011;46316;47.582;10.238;2022-09-03T06:21:22;3.75;;;3.30;;
60468;SDS011;46316;47.582;10.238;2022-09-03T06:23:48;4.00;;;3.22;;
60468;SDS011;46316;47.582;10.238;2022-09-03T06:26:21;3.15;;;2.67;;
60468;SDS011;46316;47.582;10.238;2022-09-03T06:28:49;3.50;;;3.20;;
60468;SDS011;46316;47.582;10.238;2022-09-03T06:31:15;3.58;;;3.28;;
60468;SDS011;46316;47.582;10.238;2022-09-03T06:33:43;3.38;;;3.00;;
60468;SDS011;46316;47.582;10.238;2022-09-03T06:36:10;3.40;;;2.80;;
60468;SDS011;46316;47.582;10.238;2022-09-03T06:38:38;3.72;;;3.08;;
60468;SDS011;46316;47.582;10.238;2022-09-03T06:41:06;3.10;;;2.80;;
60468;SDS011;46316;47.582;10.238;2022-09-03T06:43:40;2.88;;;2.67;;
60468;SDS011;46316;47.582;10.238;2022-09-03T06:48:34;3.10;;;2.50;;
60468;SDS011;46316;47.582;10.238;2022-09-03T06:51:02;6.38;;;3.03;;
60468;SDS011;46316;47.582;10.238;2022-09-03T06:53:30;3.37;;;2.40;;
60468;SDS011;46316;47.582;10.238;2022-09-03T06:55:59;2.90;;;2.63;;
60468;SDS011;46316;47.582;10.238;2022-09-03T06:58:29;4.00;;;2.58;;
60468;SDS011;46316;47.582;10.238;2022-09-03T07:03:32;3.25;;;2.95;;
60468;SDS011;46316;47.582;10.238;2022-09-03T07:06:01;3.03;;;2.83;;
60468;SDS011;46316;47.582;10.238;2022-09-03T07:08:29;6.00;;;2.63;;
60468;SDS011;46316;47.582;10.238;2022-09-03T07:10:56;3.70;;;2.85;;
60468;SDS011;46316;47.582;10.238;2022-09-03T07:13:24;4.35;;;2.90;;
60468;SDS011;46316;47.582;10.238;2022-09-03T07:16:03;3.13;;;2.83;;
60468;SDS011;46316;47.582;10.238;2022-09-03T07:18:30;3.75;;;3.03;;
60468;SDS011;46316;47.582;10.238;2022-09-03T07:21:00;3.30;;;3.00;;
60468;SDS011;46316;47.582;10.238;2022-09-03T07:23:26;3.22;;;2.90;;
60468;SDS011;46316;47.582;10.238;2022-09-03T07:25:56;2.85;;;2.65;;
60468;SDS011;46316;47.582;10.238;2022-09-03T07:28:24;2.70;;;2.50;;
60468;SDS011;46316;47.582;10.238;2022-09-03T07:30:50;3.10;;;2.45;;
60468;SDS011;46316;47.582;10.238;2022-09-03T07:33:17;2.53;;;2.28;;
60468;SDS011;46316;47.582;10.238;2022-09-03T07:35:43;3.03;;;2.28;;
60468;SDS011;46316;47.582;10.238;2022-09-03T07:38:10;2.58;;;2.38;;
60468;SDS011;46316;47.582;10.238;2022-09-03T07:40:35;3.28;;;2.50;;
60468;SDS011;46316;47.582;10.238;2022-09-03T07:43:03;2.83;;;2.55;;
60468;SDS011;46316;47.582;10.238;2022-09-03T07:45:29;2.63;;;2.42;;
60468;SDS011;46316;47.582;10.238;2022-09-03T07:47:57;2.53;;;2.35;;
60468;SDS011;46316;47.582;10.238;2022-09-03T07:50:22;3.47;;;2.20;;
60468;SDS011;46316;47.582;10.238;2022-09-03T07:52:48;1.92;;;1.75;;
60468;SDS011;46316;47.582;10.238;2022-09-03T07:55:13;2.30;;;2.05;;
60468;SDS011;46316;47.582;10.238;2022-09-03T07:57:39;2.42;;;1.95;;
60468;SDS011;46316;47.582;10.238;2022-09-03T08:00:05;2.97;;;1.95;;
60468;SDS011;46316;47.582;10.238;2022-09-03T08:02:33;2.60;;;2.40;;
60468;SDS011;46316;47.582;10.238;2022-09-03T08:04:58;2.05;;;1.95;;
60468;SDS011;46316;47.582;10.238;2022-09-03T08:07:25;2.03;;;1.80;;
60468;SDS011;46316;47.582;10.238;2022-09-03T08:09:52;2.25;;;1.83;;
60468;SDS011;46316;47.582;10.238;2022-09-03T08:12:17;1.92;;;1.77;;
60468;SDS011;46316;47.582;10.238;2022-09-03T08:14:43;1.90;;;1.70;;
60468;SDS011;46316;47.582;10.238;2022-09-03T08:17:09;3.63;;;1.90;;
60468;SDS011;46316;47.582;10.238;2022-09-03T08:19:36;1.83;;;1.73;;
60468;SDS011;46316;47.582;10.238;2022-09-03T08:22:02;2.13;;;1.92;;
60468;SDS011;46316;47.582;10.238;2022-09-03T08:24:27;2.95;;;2.17;;
60468;SDS011;46316;47.582;10.238;2022-09-03T08:26:53;2.17;;;1.60;;
60468;SDS011;46316;47.582;10.238;2022-09-03T08:29:19;2.00;;;1.80;;
60468;SDS011;46316;47.582;10.238;2022-09-03T08:31:45;2.22;;;1.83;;
60468;SDS011;46316;47.582;10.238;2022-09-03T08:34:11;1.70;;;1.60;;
60468;SDS011;46316;47.582;10.238;2022-09-03T08:36:38;1.55;;;1.45;;
60468;SDS011;46316;47.582;10.238;2022-09-03T08:39:05;1.40;;;1.30;;
60468;SDS011;46316;47.582;10.238;2022-09-03T08:47:21;2.85;;;1.27;;
60468;SDS011;46316;47.582;10.238;2022-09-03T08:52:37;1.80;;;1.63;;
60468;SDS011;46316;47.582;10.238;2022-09-03T09:00:54;1.95;;;1.52;;
60468;SDS011;46316;47.582;10.238;2022-09-03T09:03:40;1.58;;;1.48;;
60468;SDS011;46316;47.582;10.238;2022-09-03T09:06:22;1.83;;;1.70;;
60468;SDS011;46316;47.582;10.238;2022-09-03T09:09:30;2.15;;;1.42;;
60468;SDS011;46316;47.582;10.238;2022-09-03T09:22:54;1.70;;;1.55;;
60468;SDS011;46316;47.582;10.238;2022-09-03T09:25:27;1.90;;;1.70;;
60468;SDS011;46316;47.582;10.238;2022-09-03T09:30:23;2.90;;;1.25;;
60468;SDS011;46316;47.582;10.238;2022-09-03T09:32:50;1.55;;;1.45;;
60468;SDS011;46316;47.582;10.238;2022-09-03T09:35:16;1.80;;;1.33;;
60468;SDS011;46316;47.582;10.238;2022-09-03T09:37:46;1.60;;;1.30;;
60468;SDS011;46316;47.582;10.238;2022-09-03T09:40:30;1.58;;;1.20;;
60468;SDS011;46316;47.582;10.238;2022-09-03T09:43:14;1.20;;;1.17;;
60468;SDS011;46316;47.582;10.238;2022-09-03T09:45:46;1.70;;;1.20;;
60468;SDS011;46316;47.582;10.238;2022-09-03T09:48:27;1.43;;;1.20;;
60468;SDS011;46316;47.582;10.238;2022-09-03T09:51:05;1.10;;;1.10;;
60468;SDS011;46316;47.582;10.238;2022-09-03T09:53:34;1.27;;;1.17;;
60468;SDS011;46316;47.582;10.238;2022-09-03T09:56:00;1.50;;;1.40;;
60468;SDS011;46316;47.582;10.238;2022-09-03T09:58:29;1.38;;;1.27;;
60468;SDS011;46316;47.582;10.238;2022-09-03T10:01:01;1.20;;;1.10;;
60468;SDS011;46316;47.582;10.238;2022-09-03T10:06:35;0.90;;;0.90;;
60468;SDS011;46316;47.582;10.238;2022-09-03T10:09:22;1.40;;;1.30;;
60468;SDS011;46316;47.582;10.238;2022-09-03T10:14:43;1.33;;;1.23;;
60468;SDS011;46316;47.582;10.238;2022-09-03T10:17:25;1.08;;;1.08;;
60468;SDS011;46316;47.582;10.238;2022-09-03T10:20:21;0.93;;;0.93;;
60468;SDS011;46316;47.582;10.238;2022-09-03T10:25:47;1.23;;;1.13;;
60468;SDS011;46316;47.582;10.238;2022-09-03T10:28:24;1.05;;;0.95;;
60468;SDS011;46316;47.582;10.238;2022-09-03T10:33:43;1.30;;;1.20;;
60468;SDS011;46316;47.582;10.238;2022-09-03T10:36:24;1.52;;;1.30;;
60468;SDS011;46316;47.582;10.238;2022-09-03T10:39:16;1.30;;;1.20;;
60468;SDS011;46316;47.582;10.238;2022-09-03T10:44:39;1.25;;;1.20;;
60468;SDS011;46316;47.582;10.238;2022-09-03T10:50:05;1.00;;;1.00;;
60468;SDS011;46316;47.582;10.238;2022-09-03T10:55:45;1.73;;;1.20;;
60468;SDS011;46316;47.582;10.238;2022-09-03T10:58:32;1.10;;;1.10;;
60468;SDS011;46316;47.582;10.238;2022-09-03T11:01:09;1.30;;;1.20;;
60468;SDS011;46316;47.582;10.238;2022-09-03T11:03:46;1.88;;;1.17;;
60468;SDS011;46316;47.582;10.238;2022-09-03T11:06:20;1.50;;;1.40;;
60468;SDS011;46316;47.582;10.238;2022-09-03T11:11:44;1.83;;;1.40;;
60468;SDS011;46316;47.582;10.238;2022-09-03T11:17:09;1.58;;;1.48;;
60468;SDS011;46316;47.582;10.238;2022-09-03T11:19:47;1.50;;;1.40;;
60468;SDS011;46316;47.582;10.238;2022-09-03T11:22:19;2.08;;;1.27;;
60468;SDS011;46316;47.582;10.238;2022-09-03T11:24:49;1.60;;;1.50;;
60468;SDS011;46316;47.582;10.238;2022-09-03T11:27:23;2.25;;;1.50;;
60468;SDS011;46316;47.582;10.238;2022-09-03T11:30:13;1.23;;;1.13;;
60468;SDS011;46316;47.582;10.238;2022-09-03T11:33:28;2.45;;;1.42;;
60468;SDS011;46316;47.582;10.238;2022-09-03T11:38:04;1.75;;;1.38;;
60468;SDS011;46316;47.582;10.238;2022-09-03T11:40:36;1.63;;;1.52;;
60468;SDS011;46316;47.582;10.238;2022-09-03T11:43:23;1.60;;;1.50;;
60468;SDS011;46316;47.582;10.238;2022-09-03T11:48:42;1.30;;;1.17;;
60468;SDS011;46316;47.582;10.238;2022-09-03T11:51:35;1.55;;;1.42;;
60468;SDS011;46316;47.582;10.238;2022-09-03T11:54:03;1.80;;;1.70;;
60468;SDS011;46316;47.582;10.238;2022-09-03T11:56:44;1.40;;;1.30;;
60468;SDS011;46316;47.582;10.238;2022-09-03T12:01:37;1.40;;;1.30;;
60468;SDS011;46316;47.582;10.238;2022-09-03T12:04:39;1.63;;;1.40;;
60468;SDS011;46316;47.582;10.238;2022-09-03T12:10:13;1.70;;;1.60;;
60468;SDS011;46316;47.582;10.238;2022-09-03T12:18:11;2.15;;;1.38;;
60468;SDS011;46316;47.582;10.238;2022-09-03T12:20:43;1.50;;;1.40;;
60468;SDS011;46316;47.582;10.238;2022-09-03T12:23:10;2.00;;;1.80;;
60468;SDS011;46316;47.582;10.238;2022-09-03T12:25:45;1.80;;;1.70;;
60468;SDS011;46316;47.582;10.238;2022-09-03T12:28:11;1.85;;;1.70;;
60468;SDS011;46316;47.582;10.238;2022-09-03T12:30:43;1.77;;;1.55;;
60468;SDS011;46316;47.582;10.238;2022-09-03T12:33:10;2.75;;;1.80;;
60468;SDS011;46316;47.582;10.238;2022-09-03T12:35:41;2.50;;;1.85;;
60468;SDS011;46316;47.582;10.238;2022-09-03T12:38:06;4.75;;;1.75;;
60468;SDS011;46316;47.582;10.238;2022-09-03T12:40:32;1.80;;;1.60;;
60468;SDS011;46316;47.582;10.238;2022-09-03T12:43:11;1.50;;;1.40;;
60468;SDS011;46316;47.582;10.238;2022-09-03T12:48:15;1.40;;;1.30;;
60468;SDS011;46316;47.582;10.238;2022-09-03T12:50:43;1.85;;;1.35;;
60468;SDS011;46316;47.582;10.238;2022-09-03T12:53:20;3.38;;;1.42;;
60468;SDS011;46316;47.582;10.238;2022-09-03T12:55:52;1.42;;;1.33;;
60468;SDS011;46316;47.582;10.238;2022-09-03T13:05:52;2.20;;;1.20;;
60468;SDS011;46316;47.582;10.238;2022-09-03T13:08:22;1.33;;;1.23;;
60468;SDS011;46316;47.582;10.238;2022-09-03T13:10:51;1.37;;;1.10;;
60468;SDS011;46316;47.582;10.238;2022-09-03T13:13:21;1.17;;;1.00;;
60468;SDS011;46316;47.582;10.238;2022-09-03T13:30:03;3.38;;;1.00;;
60468;SDS011;46316;47.582;10.238;2022-09-03T13:35:22;1.10;;;1.00;;
60468;SDS011;46316;47.582;10.238;2022-09-03T13:40:42;1.05;;;0.95;;
60468;SDS011;46316;47.582;10.238;2022-09-03T13:43:25;1.10;;;0.90;;
60468;SDS011;46316;47.582;10.238;2022-09-03T13:52:07;1.02;;;0.95;;
60468;SDS011;46316;47.582;10.238;2022-09-03T13:54:49;0.77;;;0.77;;
60468;SDS011;46316;47.582;10.238;2022-09-03T13:57:25;1.02;;;0.90;;
60468;SDS011;46316;47.582;10.238;2022-09-03T13:59:55;0.75;;;0.73;;
60468;SDS011;46316;47.582;10.238;2022-09-03T14:05:53;1.50;;;1.00;;
60468;SDS011;46316;47.582;10.238;2022-09-03T14:08:21;1.55;;;1.13;;
60468;SDS011;46316;47.582;10.238;2022-09-03T14:16:41;2.65;;;0.80;;
60468;SDS011;46316;47.582;10.238;2022-09-03T14:19:25;1.83;;;0.95;;
60468;SDS011;46316;47.582;10.238;2022-09-03T14:22:25;0.90;;;0.90;;
60468;SDS011;46316;47.582;10.238;2022-09-03T14:24:57;1.02;;;0.90;;
60468;SDS011;46316;47.582;10.238;2022-09-03T14:27:27;0.70;;;0.70;;
60468;SDS011;46316;47.582;10.238;2022-09-03T14:30:02;0.98;;;0.70;;
60468;SDS011;46316;47.582;10.238;2022-09-03T14:32:36;0.50;;;0.50;;
60468;SDS011;46316;47.582;10.238;2022-09-03T14:35:28;0.93;;;0.93;;
60468;SDS011;46316;47.582;10.238;2022-09-03T14:38:07;0.77;;;0.77;;
60468;SDS011;46316;47.582;10.238;2022-09-03T14:46:17;0.80;;;0.80;;
60468;SDS011;46316;47.582;10.238;2022-09-03T14:49:14;0.80;;;0.80;;
60468;SDS011;46316;47.582;10.238;2022-09-03T15:00:07;0.82;;;0.82;;
60468;SDS011;46316;47.582;10.238;2022-09-03T15:02:45;1.10;;;1.00;;
60468;SDS011;46316;47.582;10.238;2022-09-03T15:08:08;1.63;;;1.25;;
60468;SDS011;46316;47.582;10.238;2022-09-03T15:11:02;0.85;;;0.85;;
60468;SDS011;46316;47.582;10.238;2022-09-03T15:13:45;0.60;;;0.60;;
60468;SDS011;46316;47.582;10.238;2022-09-03T15:19:17;1.58;;;0.52;;
60468;SDS011;46316;47.582;10.238;2022-09-03T15:22:05;1.10;;;0.82;;
60468;SDS011;46316;47.582;10.238;2022-09-03T15:25:06;0.90;;;0.90;;
60468;SDS011;46316;47.582;10.238;2022-09-03T15:27:46;0.70;;;0.70;;
60468;SDS011;46316;47.582;10.238;2022-09-03T15:30:18;0.90;;;0.82;;
60468;SDS011;46316;47.582;10.238;2022-09-03T15:40:51;1.15;;;0.82;;
60468;SDS011;46316;47.582;10.238;2022-09-03T15:45:53;1.00;;;1.00;;
60468;SDS011;46316;47.582;10.238;2022-09-03T15:53:51;2.05;;;0.88;;
60468;SDS011;46316;47.582;10.238;2022-09-03T16:07:29;1.30;;;1.20;;
60468;SDS011;46316;47.582;10.238;2022-09-03T16:10:39;1.02;;;0.93;;
60468;SDS011;46316;47.582;10.238;2022-09-03T16:13:32;3.90;;;0.88;;
60468;SDS011;46316;47.582;10.238;2022-09-03T16:16:05;0.98;;;0.98;;
60468;SDS011;46316;47.582;10.238;2022-09-03T16:18:38;0.95;;;0.90;;
60468;SDS011;46316;47.582;10.238;2022-09-03T16:21:57;0.93;;;0.82;;
60468;SDS011;46316;47.582;10.238;2022-09-03T16:26:50;1.23;;;0.90;;
60468;SDS011;46316;47.582;10.238;2022-09-03T16:29:26;0.82;;;0.82;;
60468;SDS011;46316;47.582;10.238;2022-09-03T16:37:23;0.85;;;0.80;;
60468;SDS011;46316;47.582;10.238;2022-09-03T16:40:16;1.30;;;1.20;;
60468;SDS011;46316;47.582;10.238;2022-09-03T16:48:57;1.05;;;0.93;;
60468;SDS011;46316;47.582;10.238;2022-09-03T16:51:43;1.35;;;0.98;;
60468;SDS011;46316;47.582;10.238;2022-09-03T16:59:40;1.35;;;0.98;;
60468;SDS011;46316;47.582;10.238;2022-09-03T17:07:52;1.10;;;1.00;;
60468;SDS011;46316;47.582;10.238;2022-09-03T17:10:49;1.00;;;0.90;;
60468;SDS011;46316;47.582;10.238;2022-09-03T17:13:39;1.20;;;1.10;;
60468;SDS011;46316;47.582;10.238;2022-09-03T17:19:31;2.33;;;1.30;;
60468;SDS011;46316;47.582;10.238;2022-09-03T17:24:58;1.35;;;1.10;;
60468;SDS011;46316;47.582;10.238;2022-09-03T17:27:48;1.40;;;1.30;;
60468;SDS011;46316;47.582;10.238;2022-09-03T17:36:16;1.70;;;1.33;;
60468;SDS011;46316;47.582;10.238;2022-09-03T17:47:46;1.85;;;1.20;;
60468;SDS011;46316;47.582;10.238;2022-09-03T17:50:07;1.17;;;1.08;;
60468;SDS011;46316;47.582;10.238;2022-09-03T17:52:59;1.80;;;1.10;;
60468;SDS011;46316;47.582;10.238;2022-09-03T17:55:36;1.77;;;1.52;;
60468;SDS011;46316;47.582;10.238;2022-09-03T17:58:27;1.58;;;1.48;;
60468;SDS011;46316;47.582;10.238;2022-09-03T18:01:18;1.98;;;1.80;;
60468;SDS011;46316;47.582;10.238;2022-09-03T18:03:54;2.08;;;1.88;;
60468;SDS011;46316;47.582;10.238;2022-09-03T18:09:11;1.58;;;1.48;;
60468;SDS011;46316;47.582;10.238;2022-09-03T18:11:56;1.50;;;1.40;;
60468;SDS011;46316;47.582;10.238;2022-09-03T18:14:35;2.03;;;1.50;;
60468;SDS011;46316;47.582;10.238;2022-09-03T18:17:30;2.47;;;1.42;;
60468;SDS011;46316;47.582;10.238;2022-09-03T18:20:02;2.15;;;2.03;;
60468;SDS011;46316;47.582;10.238;2022-09-03T18:22:53;1.98;;;1.88;;
60468;SDS011;46316;47.582;10.238;2022-09-03T18:25:59;1.70;;;1.60;;
60468;SDS011;46316;47.582;10.238;2022-09-03T18:28:58;2.30;;;1.30;;
60468;SDS011;46316;47.582;10.238;2022-09-03T18:31:46;1.20;;;1.15;;
60468;SDS011;46316;47.582;10.238;2022-09-03T18:34:31;1.85;;;1.40;;
60468;SDS011;46316;47.582;10.238;2022-09-03T18:37:21;1.75;;;1.60;;
60468;SDS011;46316;47.582;10.238;2022-09-03T18:40:08;1.50;;;1.40;;
60468;SDS011;46316;47.582;10.238;2022-09-03T18:43:05;3.47;;;1.50;;
60468;SDS011;46316;47.582;10.238;2022-09-03T18:46:20;3.60;;;1.50;;
60468;SDS011;46316;47.582;10.238;2022-09-03T18:49:28;1.73;;;1.50;;
60468;SDS011;46316;47.582;10.238;2022-09-03T18:52:25;2.20;;;1.70;;
60468;SDS011;46316;47.582;10.238;2022-09-03T19:01:37;3.03;;;1.90;;
60468;SDS011;46316;47.582;10.238;2022-09-03T19:07:19;1.58;;;1.48;;
60468;SDS011;46316;47.582;10.238;2022-09-03T19:13:36;2.20;;;2.00;;
60468;SDS011;46316;47.582;10.238;2022-09-03T19:16:32;2.10;;;1.90;;
60468;SDS011;46316;47.582;10.238;2022-09-03T19:22:59;3.10;;;1.42;;
60468;SDS011;46316;47.582;10.238;2022-09-03T19:25:45;1.58;;;1.48;;
60468;SDS011;46316;47.582;10.238;2022-09-03T19:28:30;1.60;;;1.50;;
60468;SDS011;46316;47.582;10.238;2022-09-03T19:34:49;2.10;;;1.90;;
60468;SDS011;46316;47.582;10.238;2022-09-03T19:47:25;4.57;;;1.80;;
60468;SDS011;46316;47.582;10.238;2022-09-03T19:50:43;2.55;;;1.98;;
60468;SDS011;46316;47.582;10.238;2022-09-03T19:53:39;2.60;;;1.85;;
60468;SDS011;46316;47.582;10.238;2022-09-03T19:56:27;2.00;;;1.73;;
60468;SDS011;46316;47.582;10.238;2022-09-03T19:59:14;1.75;;;1.52;;
60468;SDS011;46316;47.582;10.238;2022-09-03T20:02:02;7.43;;;1.92;;
60468;SDS011;46316;47.582;10.238;2022-09-03T20:04:50;1.92;;;1.83;;